createdAt,value
2023-05-17T00:01:47.715Z,1.50
2023-05-17T00:04:16.616Z,1.53
2023-05-17T00:06:45.132Z,1.90
2023-05-17T00:09:13.779Z,1.97
2023-05-17T00:11:43.633Z,2.10
2023-05-17T00:14:12.130Z,2.17
2023-05-17T00:16:40.602Z,1.97
2023-05-17T00:19:09.723Z,1.90
2023-05-17T00:21:38.337Z,2.00
2023-05-17T00:24:07.223Z,1.80
2023-05-17T00:26:35.674Z,1.77
2023-05-17T00:29:05.523Z,1.70
2023-05-17T00:31:34.060Z,1.90
2023-05-17T00:34:02.459Z,1.60
2023-05-17T00:36:30.935Z,1.50
2023-05-17T00:38:59.412Z,1.73
2023-05-17T00:41:27.862Z,1.23
2023-05-17T00:43:56.378Z,1.40
2023-05-17T00:46:26.233Z,1.53
2023-05-17T00:48:54.812Z,1.30
2023-05-17T00:51:23.358Z,1.30
2023-05-17T00:53:51.948Z,1.60
2023-05-17T00:56:20.871Z,1.80
2023-05-17T00:58:49.550Z,1.90
2023-05-17T01:01:18.062Z,1.80
2023-05-17T01:03:48.048Z,2.13
2023-05-17T01:06:16.695Z,2.00
2023-05-17T01:08:45.446Z,1.97
2023-05-17T01:11:18.416Z,2.30
2023-05-17T01:13:51.257Z,2.00
2023-05-17T01:16:21.008Z,2.00
2023-05-17T01:18:58.678Z,2.27
2023-05-17T01:21:37.360Z,1.73
2023-05-17T01:24:14.867Z,1.80
2023-05-17T01:26:45.413Z,1.90
2023-05-17T01:29:14.791Z,1.80
2023-05-17T01:31:43.881Z,1.70
2023-05-17T01:34:13.098Z,1.60
2023-05-17T01:36:43.307Z,1.77
2023-05-17T01:39:11.854Z,1.60
2023-05-17T01:41:42.322Z,1.63
2023-05-17T01:44:19.548Z,1.70
2023-05-17T01:46:49.944Z,2.00
2023-05-17T01:49:20.130Z,1.40
2023-05-17T01:51:50.122Z,1.60
2023-05-17T01:54:22.625Z,1.70
2023-05-17T01:56:57.302Z,1.37
2023-05-17T01:59:27.297Z,1.50
2023-05-17T02:01:57.647Z,1.33
2023-05-17T02:04:26.151Z,1.57
2023-05-17T02:06:54.635Z,1.30
2023-05-17T02:09:23.082Z,1.37
2023-05-17T02:11:51.539Z,1.60
2023-05-17T02:14:19.938Z,1.23
2023-05-17T02:16:50.140Z,1.23
2023-05-17T02:19:18.683Z,1.70
2023-05-17T02:21:47.210Z,1.47
2023-05-17T02:24:15.648Z,1.30
2023-05-17T02:26:44.119Z,1.40
2023-05-17T02:29:12.580Z,1.27
2023-05-17T02:31:41.072Z,1.40
2023-05-17T02:34:11.198Z,1.40
2023-05-17T02:36:41.068Z,1.43
2023-05-17T02:39:09.914Z,1.43
2023-05-17T02:41:38.429Z,1.50
2023-05-17T02:44:06.895Z,1.30
2023-05-17T02:46:38.276Z,1.20
2023-05-17T02:49:06.994Z,1.17
2023-05-17T02:51:36.833Z,1.33
2023-05-17T02:54:05.297Z,1.47
2023-05-17T02:56:34.093Z,1.30
2023-05-17T02:59:02.702Z,1.27
2023-05-17T03:01:31.151Z,1.20
2023-05-17T03:03:59.771Z,1.50
2023-05-17T03:06:28.265Z,1.50
2023-05-17T03:08:58.045Z,1.50
2023-05-17T03:11:26.776Z,1.40
2023-05-17T03:13:55.172Z,1.30
2023-05-17T03:16:23.674Z,1.30
2023-05-17T03:18:52.191Z,1.20
2023-05-17T03:21:20.721Z,2.17
2023-05-17T03:23:49.156Z,1.60
2023-05-17T03:26:19.829Z,1.47
2023-05-17T03:28:48.296Z,1.50
2023-05-17T03:31:17.520Z,1.80
2023-05-17T03:33:46.633Z,1.60
2023-05-17T03:36:15.150Z,1.73
2023-05-17T03:38:43.679Z,1.53
2023-05-17T03:41:12.417Z,1.60
2023-05-17T03:43:42.261Z,1.60
2023-05-17T03:46:11.430Z,1.73
2023-05-17T03:48:39.941Z,1.50
2023-05-17T03:51:08.389Z,1.80
2023-05-17T03:53:41.261Z,1.60
2023-05-17T03:56:09.962Z,1.60
2023-05-17T03:58:38.446Z,1.70
2023-05-17T04:01:08.833Z,1.77
2023-05-17T04:03:37.675Z,1.60
2023-05-17T04:06:07.414Z,1.83
2023-05-17T04:08:36.142Z,1.87
2023-05-17T04:11:10.384Z,1.67
2023-05-17T04:13:39.062Z,1.90
2023-05-17T04:16:10.147Z,1.87
2023-05-17T04:18:39.405Z,1.77
2023-05-17T04:21:08.126Z,2.17
2023-05-17T04:23:36.976Z,1.83
2023-05-17T04:26:06.195Z,1.93
2023-05-17T04:28:35.384Z,2.00
2023-05-17T04:31:03.881Z,1.87
2023-05-17T04:33:33.712Z,2.00
2023-05-17T04:36:02.631Z,2.00
2023-05-17T04:38:31.272Z,2.10
2023-05-17T04:41:04.630Z,2.17
2023-05-17T04:43:33.174Z,2.20
2023-05-17T04:46:02.127Z,2.00
2023-05-17T04:48:32.988Z,2.20
2023-05-17T04:51:04.532Z,2.40
2023-05-17T04:53:33.663Z,2.17
2023-05-17T04:56:02.283Z,2.30
2023-05-17T04:58:31.876Z,2.20
2023-05-17T05:01:00.396Z,2.00
2023-05-17T05:03:28.892Z,2.10
2023-05-17T05:05:57.374Z,2.17
2023-05-17T05:08:27.238Z,2.23
2023-05-17T05:10:55.692Z,1.90
2023-05-17T05:13:24.258Z,2.10
2023-05-17T05:15:52.754Z,2.13
2023-05-17T05:18:21.346Z,2.03
2023-05-17T05:20:50.270Z,1.80
2023-05-17T05:23:19.244Z,1.93
2023-05-17T05:25:49.100Z,2.10
2023-05-17T05:28:17.577Z,1.70
2023-05-17T05:30:46.137Z,1.70
2023-05-17T05:33:14.734Z,1.70
2023-05-17T05:35:43.512Z,1.77
2023-05-17T05:38:12.058Z,1.70
2023-05-17T05:40:40.492Z,1.50
2023-05-17T05:43:10.294Z,1.60
2023-05-17T05:45:41.241Z,1.47
2023-05-17T05:48:09.966Z,1.60
2023-05-17T05:50:38.517Z,1.60
2023-05-17T05:53:18.090Z,1.37
2023-05-17T05:55:49.513Z,1.40
2023-05-17T05:58:19.415Z,1.40
2023-05-17T06:00:47.904Z,1.50
2023-05-17T06:03:16.455Z,1.50
2023-05-17T06:05:45.124Z,1.47
2023-05-17T06:08:13.760Z,1.27
2023-05-17T06:10:42.208Z,1.50
2023-05-17T06:13:11.234Z,1.40
2023-05-17T06:15:42.193Z,1.50
2023-05-17T06:18:10.676Z,1.30
2023-05-17T06:20:39.218Z,1.10
2023-05-17T06:23:07.683Z,1.50
2023-05-17T06:25:36.140Z,2.00
2023-05-17T06:28:05.414Z,2.77
2023-05-17T06:30:33.907Z,2.43
2023-05-17T06:33:03.947Z,2.70
2023-05-17T06:35:43.804Z,2.73
2023-05-17T06:38:21.313Z,2.40
2023-05-17T06:40:53.309Z,2.27
2023-05-17T06:43:21.871Z,1.80
2023-05-17T06:45:50.361Z,1.30
2023-05-17T06:48:20.305Z,1.13
2023-05-17T06:50:48.824Z,1.20
2023-05-17T06:53:17.363Z,1.13
2023-05-17T06:55:46.062Z,1.10
2023-05-17T06:58:14.621Z,0.97
2023-05-17T07:00:43.167Z,1.00
2023-05-17T07:03:11.745Z,1.00
2023-05-17T07:05:43.827Z,1.10
2023-05-17T07:08:12.275Z,1.30
2023-05-17T07:10:40.780Z,1.10
2023-05-17T07:13:09.245Z,1.20
2023-05-17T07:15:37.674Z,0.95
2023-05-17T07:18:06.391Z,0.90
2023-05-17T07:20:34.933Z,1.30
2023-05-17T07:23:04.751Z,1.15
2023-05-17T07:25:33.438Z,1.20
2023-05-17T07:28:01.855Z,1.17
2023-05-17T07:30:30.388Z,1.17
2023-05-17T07:32:58.974Z,1.17
2023-05-17T07:35:27.727Z,1.02
2023-05-17T07:37:57.514Z,1.15
2023-05-17T07:40:27.412Z,1.10
2023-05-17T07:42:55.840Z,1.10
2023-05-17T07:45:24.469Z,1.13
2023-05-17T07:47:52.997Z,1.40
2023-05-17T07:50:22.186Z,1.30
2023-05-17T07:52:50.615Z,1.10
2023-05-17T07:55:19.914Z,1.25
2023-05-17T07:57:49.846Z,1.25
2023-05-17T08:00:19.350Z,1.35
2023-05-17T08:02:47.960Z,1.27
2023-05-17T08:05:16.484Z,1.20
2023-05-17T08:07:44.968Z,1.10
2023-05-17T08:10:13.524Z,1.30
2023-05-17T08:12:42.057Z,1.13
2023-05-17T08:15:12.503Z,0.90
2023-05-17T08:17:40.998Z,1.48
2023-05-17T08:20:10.274Z,1.20
2023-05-17T08:22:38.793Z,1.30
2023-05-17T08:25:07.742Z,1.20
2023-05-17T08:27:36.241Z,1.10
2023-05-17T08:30:07.269Z,1.10
2023-05-17T08:32:41.885Z,1.73
2023-05-17T08:35:10.746Z,0.95
2023-05-17T08:37:39.227Z,1.13
2023-05-17T08:40:08.498Z,1.40
2023-05-17T08:42:37.078Z,1.40
2023-05-17T08:45:06.819Z,1.20
2023-05-17T08:47:37.949Z,1.17
2023-05-17T08:50:08.376Z,1.10
2023-05-17T08:52:38.076Z,1.40
2023-05-17T08:55:08.281Z,1.65
2023-05-17T08:57:37.836Z,1.60
2023-05-17T09:00:12.544Z,1.63
2023-05-17T09:02:42.253Z,1.67
2023-05-17T09:05:14.198Z,1.98
2023-05-17T09:07:43.490Z,2.63
2023-05-17T09:10:13.644Z,2.22
2023-05-17T09:12:42.457Z,2.50
2023-05-17T09:15:15.489Z,2.58
2023-05-17T09:17:44.406Z,2.65
2023-05-17T09:20:14.652Z,2.70
2023-05-17T09:22:44.258Z,2.83
2023-05-17T09:25:13.213Z,3.22
2023-05-17T09:27:41.663Z,3.38
2023-05-17T09:30:12.754Z,3.22
2023-05-17T09:32:46.196Z,3.85
2023-05-17T09:35:17.496Z,3.83
2023-05-17T09:37:47.207Z,4.53
2023-05-17T09:40:24.037Z,4.03
2023-05-17T09:42:52.581Z,4.15
2023-05-17T09:45:24.326Z,4.30
2023-05-17T09:47:53.648Z,4.63
2023-05-17T09:50:26.143Z,5.25
2023-05-17T09:52:54.883Z,7.53
2023-05-17T09:55:28.439Z,11.93
2023-05-17T09:58:04.319Z,13.25
2023-05-17T10:00:33.756Z,13.07
2023-05-17T10:03:03.053Z,15.23
2023-05-17T10:05:33.809Z,15.07
2023-05-17T10:08:02.476Z,15.73
2023-05-17T10:10:32.589Z,17.75
2023-05-17T10:13:02.149Z,19.73
2023-05-17T10:15:30.826Z,19.02
2023-05-17T10:17:59.755Z,21.13
2023-05-17T10:20:28.763Z,21.77
2023-05-17T10:22:59.079Z,25.77
2023-05-17T10:25:27.748Z,26.33
2023-05-17T10:27:56.774Z,27.10
2023-05-17T10:30:25.665Z,26.38
2023-05-17T10:32:54.801Z,24.20
2023-05-17T10:35:23.629Z,24.15
2023-05-17T10:37:52.211Z,26.40
2023-05-17T10:40:23.300Z,29.60
2023-05-17T10:42:53.282Z,33.08
2023-05-17T10:45:22.721Z,37.08
2023-05-17T10:47:52.840Z,39.13
2023-05-17T10:50:24.496Z,38.45
2023-05-17T10:52:53.553Z,37.33
2023-05-17T10:55:25.061Z,36.65
2023-05-17T10:58:11.439Z,34.08
2023-05-17T11:00:43.437Z,34.67
2023-05-17T11:03:30.242Z,35.97
2023-05-17T11:06:22.638Z,33.60
2023-05-17T11:09:08.083Z,31.15
2023-05-17T11:11:38.147Z,31.60
2023-05-17T11:14:08.673Z,30.77
2023-05-17T11:16:37.835Z,29.73
2023-05-17T11:19:09.948Z,31.58
2023-05-17T11:21:46.919Z,30.60
2023-05-17T11:24:18.958Z,30.33
2023-05-17T11:26:52.222Z,33.35
2023-05-17T11:29:21.992Z,33.10
2023-05-17T11:31:55.096Z,36.08
2023-05-17T11:34:25.608Z,37.67
2023-05-17T11:36:55.086Z,33.90
2023-05-17T11:39:24.233Z,35.15
2023-05-17T11:41:54.874Z,34.78
2023-05-17T11:44:27.015Z,34.70
2023-05-17T11:47:02.574Z,35.05
2023-05-17T11:49:35.785Z,34.33
2023-05-17T11:52:06.258Z,35.80
2023-05-17T11:54:35.153Z,32.60
2023-05-17T11:57:08.205Z,31.42
2023-05-17T11:59:39.930Z,33.60
2023-05-17T12:02:08.655Z,33.80
2023-05-17T12:04:38.548Z,33.60
2023-05-17T12:07:07.560Z,34.25
2023-05-17T12:09:36.124Z,36.67
2023-05-17T12:12:06.632Z,35.75
2023-05-17T12:14:35.093Z,36.10
2023-05-17T12:17:05.176Z,35.63
2023-05-17T12:19:33.816Z,36.60
2023-05-17T12:22:09.431Z,37.53
2023-05-17T12:24:41.271Z,36.42
2023-05-17T12:27:11.702Z,38.72
2023-05-17T12:29:40.682Z,34.30
2023-05-17T12:32:09.960Z,36.55
2023-05-17T12:34:39.065Z,38.00
2023-05-17T12:37:10.488Z,39.00
2023-05-17T12:39:39.509Z,40.65
2023-05-17T12:42:08.636Z,41.08
2023-05-17T12:44:38.491Z,40.75
2023-05-17T12:47:07.103Z,36.83
2023-05-17T12:49:40.117Z,39.40
2023-05-17T12:52:09.091Z,35.90
2023-05-17T12:54:37.561Z,35.22
2023-05-17T12:57:13.833Z,36.17
2023-05-17T12:59:51.006Z,38.30
2023-05-17T13:02:21.116Z,34.83
2023-05-17T13:04:50.000Z,29.70
2023-05-17T13:07:23.846Z,30.55
2023-05-17T13:09:52.399Z,34.55
2023-05-17T13:12:22.231Z,37.00
2023-05-17T13:14:53.345Z,38.15
2023-05-17T13:17:26.117Z,39.85
2023-05-17T13:19:54.982Z,39.58
2023-05-17T13:22:25.197Z,37.92
2023-05-17T13:24:53.860Z,36.17
2023-05-17T13:27:22.553Z,36.70
2023-05-17T13:29:52.436Z,39.80
2023-05-17T13:32:20.904Z,34.97
2023-05-17T13:34:49.364Z,34.83
2023-05-17T13:37:17.817Z,35.75
2023-05-17T13:39:46.325Z,31.48
2023-05-17T13:42:14.803Z,24.02
2023-05-17T13:44:43.256Z,30.10
2023-05-17T13:47:13.129Z,31.70
2023-05-17T13:49:42.098Z,36.72
2023-05-17T13:52:12.748Z,41.67
2023-05-17T13:54:41.425Z,40.63
2023-05-17T13:57:09.886Z,38.15
2023-05-17T13:59:39.266Z,30.00
2023-05-17T14:02:07.805Z,28.25
2023-05-17T14:04:37.741Z,25.02
2023-05-17T14:07:06.399Z,30.77
2023-05-17T14:09:36.774Z,27.48
2023-05-17T14:12:05.615Z,33.28
2023-05-17T14:14:34.033Z,39.30
2023-05-17T14:17:02.623Z,40.05
2023-05-17T14:19:31.537Z,40.97
2023-05-17T14:22:01.659Z,38.08
2023-05-17T14:24:30.140Z,38.70
2023-05-17T14:26:58.769Z,32.08
2023-05-17T14:29:27.268Z,29.52
2023-05-17T14:31:55.743Z,35.45
2023-05-17T14:34:24.342Z,39.35
2023-05-17T14:36:52.801Z,39.28
2023-05-17T14:39:22.641Z,38.05
2023-05-17T14:41:51.112Z,36.03
2023-05-17T14:44:19.635Z,34.00
2023-05-17T14:46:48.048Z,25.02
2023-05-17T14:49:16.798Z,24.02
2023-05-17T14:51:45.256Z,29.08
2023-05-17T14:54:13.964Z,25.20
2023-05-17T14:56:44.507Z,29.45
2023-05-17T14:59:13.217Z,29.90
2023-05-17T15:01:42.314Z,29.60
2023-05-17T15:04:11.056Z,31.20
2023-05-17T15:06:39.554Z,29.00
2023-05-17T15:09:12.432Z,27.00
2023-05-17T15:11:42.028Z,24.02
2023-05-17T15:14:11.909Z,19.42
2023-05-17T15:16:40.605Z,22.55
2023-05-17T15:19:09.830Z,18.15
2023-05-17T15:21:38.332Z,14.02
2023-05-17T15:24:07.456Z,11.45
2023-05-17T15:26:35.970Z,17.85
2023-05-17T15:29:04.427Z,22.35
2023-05-17T15:31:34.251Z,21.40
2023-05-17T15:34:03.187Z,22.90
2023-05-17T15:36:31.690Z,21.02
2023-05-17T15:39:00.162Z,14.75
2023-05-17T15:41:30.213Z,12.05
2023-05-17T15:43:58.895Z,13.65
2023-05-17T15:46:27.463Z,11.32
2023-05-17T15:48:58.012Z,10.80
2023-05-17T15:51:26.572Z,10.88
2023-05-17T15:53:55.404Z,9.05
2023-05-17T15:56:23.912Z,6.32
2023-05-17T15:58:53.244Z,6.40
2023-05-17T16:01:21.787Z,5.78
2023-05-17T16:03:50.580Z,4.68
2023-05-17T16:06:21.959Z,6.65
2023-05-17T16:08:50.553Z,6.70
2023-05-17T16:11:19.018Z,6.63
2023-05-17T16:13:47.504Z,4.57
2023-05-17T16:16:16.258Z,3.50
2023-05-17T16:18:44.893Z,2.97
2023-05-17T16:21:13.582Z,4.30
2023-05-17T16:23:43.574Z,3.63
2023-05-17T16:26:12.057Z,2.95
2023-05-17T16:28:40.675Z,3.13
2023-05-17T16:31:09.341Z,3.60
2023-05-17T16:33:37.958Z,3.65
2023-05-17T16:36:06.646Z,3.47
2023-05-17T16:38:35.157Z,3.63
2023-05-17T16:41:05.050Z,3.58
2023-05-17T16:43:33.572Z,2.95
2023-05-17T16:46:02.196Z,3.60
2023-05-17T16:48:30.706Z,3.80
2023-05-17T16:50:59.603Z,3.50
2023-05-17T16:53:28.380Z,3.85
2023-05-17T16:55:56.838Z,1.95
2023-05-17T16:58:27.162Z,2.13
2023-05-17T17:00:55.815Z,1.73
2023-05-17T17:03:24.351Z,1.50
2023-05-17T17:05:52.900Z,1.55
2023-05-17T17:08:21.408Z,1.77
2023-05-17T17:10:49.862Z,1.13
2023-05-17T17:13:18.436Z,1.40
2023-05-17T17:15:48.853Z,2.10
2023-05-17T17:18:17.720Z,1.48
2023-05-17T17:20:46.384Z,1.45
2023-05-17T17:23:15.010Z,1.50
2023-05-17T17:25:43.482Z,1.90
2023-05-17T17:28:11.907Z,1.55
2023-05-17T17:30:40.380Z,1.77
2023-05-17T17:33:10.241Z,1.30
2023-05-17T17:35:38.797Z,1.77
2023-05-17T17:38:07.611Z,1.60
2023-05-17T17:40:36.078Z,1.27
2023-05-17T17:43:04.536Z,1.42
2023-05-17T17:45:32.995Z,1.80
2023-05-17T17:48:01.520Z,1.52
2023-05-17T17:50:31.759Z,1.80
2023-05-17T17:53:00.895Z,1.90
2023-05-17T17:55:29.450Z,2.33
2023-05-17T17:57:57.948Z,3.08
2023-05-17T18:00:26.588Z,2.70
2023-05-17T18:02:55.036Z,2.25
2023-05-17T18:05:25.409Z,1.75
2023-05-17T18:07:55.730Z,1.92
2023-05-17T18:10:24.140Z,1.60
2023-05-17T18:12:52.574Z,1.75
2023-05-17T18:15:21.033Z,1.55
2023-05-17T18:17:51.546Z,1.42
2023-05-17T18:20:22.220Z,1.80
2023-05-17T18:22:50.707Z,1.63
2023-05-17T18:25:20.559Z,1.65
2023-05-17T18:27:49.046Z,1.63
2023-05-17T18:30:17.498Z,2.00
2023-05-17T18:32:46.233Z,1.95
2023-05-17T18:35:14.845Z,1.70
2023-05-17T18:37:43.516Z,1.60
2023-05-17T18:40:12.549Z,1.55
2023-05-17T18:42:42.562Z,1.63
2023-05-17T18:45:11.525Z,1.67
2023-05-17T18:47:40.043Z,1.83
2023-05-17T18:50:09.103Z,1.85
2023-05-17T18:52:37.553Z,1.90
2023-05-17T18:55:06.192Z,1.58
2023-05-17T18:57:34.687Z,1.73
2023-05-17T19:00:04.822Z,1.85
2023-05-17T19:02:33.345Z,2.03
2023-05-17T19:05:01.916Z,1.90
2023-05-17T19:07:30.357Z,2.10
2023-05-17T19:09:58.787Z,2.08
2023-05-17T19:12:27.372Z,1.95
2023-05-17T19:14:55.915Z,1.83
2023-05-17T19:17:25.983Z,2.70
2023-05-17T19:19:54.495Z,2.22
2023-05-17T19:22:22.923Z,2.03
2023-05-17T19:24:51.632Z,1.65
2023-05-17T19:27:20.700Z,1.80
2023-05-17T19:29:49.504Z,2.30
2023-05-17T19:32:17.930Z,2.15
2023-05-17T19:34:47.813Z,2.28
2023-05-17T19:37:16.283Z,1.85
2023-05-17T19:39:44.772Z,1.88
2023-05-17T19:42:13.212Z,1.77
2023-05-17T19:44:41.649Z,2.30
2023-05-17T19:47:10.116Z,2.10
2023-05-17T19:49:38.605Z,1.90
2023-05-17T19:52:08.878Z,1.92
2023-05-17T19:54:37.304Z,1.98
2023-05-17T19:57:05.984Z,1.90
2023-05-17T19:59:34.672Z,2.25
2023-05-17T20:02:03.137Z,2.47
2023-05-17T20:04:31.620Z,1.98
2023-05-17T20:07:00.038Z,2.00
2023-05-17T20:09:32.179Z,1.90
2023-05-17T20:12:00.782Z,1.90
2023-05-17T20:14:29.352Z,1.65
2023-05-17T20:16:57.804Z,1.93
2023-05-17T20:19:26.415Z,2.10
2023-05-17T20:21:54.940Z,2.13
2023-05-17T20:24:25.666Z,1.80
2023-05-17T20:26:55.584Z,1.95
2023-05-17T20:29:24.098Z,2.83
2023-05-17T20:31:52.756Z,1.85
2023-05-17T20:34:21.234Z,1.90
2023-05-17T20:36:49.641Z,2.27
2023-05-17T20:39:19.211Z,2.47
2023-05-17T20:41:49.665Z,2.23
2023-05-17T20:44:20.159Z,2.10
2023-05-17T20:46:49.099Z,2.10
2023-05-17T20:49:18.209Z,2.40
2023-05-17T20:51:46.898Z,2.60
2023-05-17T20:54:15.483Z,2.50
2023-05-17T20:56:44.018Z,2.70
2023-05-17T20:59:12.561Z,2.77
2023-05-17T21:01:42.515Z,2.13
2023-05-17T21:04:11.296Z,2.23
2023-05-17T21:06:39.790Z,2.40
2023-05-17T21:09:08.398Z,2.30
2023-05-17T21:11:36.882Z,2.37
2023-05-17T21:14:05.368Z,2.50
2023-05-17T21:16:35.435Z,2.30
2023-05-17T21:19:05.704Z,2.27
2023-05-17T21:21:34.190Z,2.27
2023-05-17T21:24:02.972Z,2.70
2023-05-17T21:26:31.528Z,2.60
2023-05-17T21:29:00.450Z,2.50
2023-05-17T21:31:31.705Z,2.20
2023-05-17T21:34:00.258Z,2.90
2023-05-17T21:36:30.108Z,2.67
2023-05-17T21:38:58.589Z,2.33
2023-05-17T21:41:27.066Z,2.67
2023-05-17T21:43:55.722Z,2.53
2023-05-17T21:46:24.199Z,2.17
2023-05-17T21:48:53.187Z,2.60
2023-05-17T21:51:22.378Z,3.00
2023-05-17T21:53:52.196Z,2.73
2023-05-17T21:56:21.714Z,3.33
2023-05-17T21:58:50.586Z,2.60
2023-05-17T22:01:24.274Z,2.60
2023-05-17T22:03:55.046Z,2.40
2023-05-17T22:06:23.681Z,2.07
2023-05-17T22:08:53.554Z,3.13
2023-05-17T22:11:23.748Z,2.10
2023-05-17T22:13:52.204Z,2.20
2023-05-17T22:16:22.491Z,2.27
2023-05-17T22:18:52.459Z,2.67
2023-05-17T22:21:21.409Z,2.47
2023-05-17T22:23:49.877Z,2.23
2023-05-17T22:26:19.874Z,2.03
2023-05-17T22:28:48.336Z,3.10
2023-05-17T22:31:18.571Z,2.37
2023-05-17T22:33:47.430Z,2.67
2023-05-17T22:36:17.250Z,2.57
2023-05-17T22:38:45.697Z,2.47
2023-05-17T22:41:14.440Z,2.20
2023-05-17T22:43:44.275Z,2.30
2023-05-17T22:46:12.733Z,2.73
2023-05-17T22:48:41.173Z,2.47
2023-05-17T22:51:09.739Z,2.30
2023-05-17T22:53:38.213Z,2.80
2023-05-17T22:56:07.588Z,2.13
2023-05-17T22:58:36.196Z,2.37
2023-05-17T23:01:06.140Z,1.83
2023-05-17T23:03:34.678Z,2.33
2023-05-17T23:06:03.416Z,2.10
2023-05-17T23:08:32.288Z,2.10
2023-05-17T23:11:01.806Z,2.10
2023-05-17T23:13:30.340Z,2.40
2023-05-17T23:15:59.233Z,2.10
2023-05-17T23:18:29.046Z,2.30
2023-05-17T23:20:58.992Z,2.40
2023-05-17T23:23:30.064Z,2.10
2023-05-17T23:25:58.786Z,2.10
2023-05-17T23:28:27.312Z,2.57
2023-05-17T23:30:55.853Z,2.20
2023-05-17T23:33:24.562Z,2.37
2023-05-17T23:35:55.584Z,2.10
2023-05-17T23:38:24.038Z,2.03
2023-05-17T23:40:52.474Z,2.60
2023-05-17T23:43:20.907Z,2.00
2023-05-17T23:45:49.404Z,2.20
2023-05-17T23:48:20.724Z,2.07
2023-05-17T23:50:49.201Z,2.27
2023-05-17T23:53:19.799Z,2.07
2023-05-17T23:55:48.259Z,2.60
2023-05-17T23:58:17.611Z,2.10
